createdAt,value
2018-05-09T00:00:02.811Z,17.02
2018-05-09T00:01:02.776Z,16.96
2018-05-09T00:02:02.749Z,16.96
2018-05-09T00:03:02.714Z,16.91
2018-05-09T00:04:02.681Z,16.90
2018-05-09T00:05:02.643Z,16.91
2018-05-09T00:06:02.607Z,16.90
2018-05-09T00:07:02.580Z,16.91
2018-05-09T00:08:02.549Z,16.86
2018-05-09T00:09:02.517Z,16.89
2018-05-09T00:10:02.486Z,16.89
2018-05-09T00:11:02.449Z,17.02
2018-05-09T00:12:02.449Z,17.06
2018-05-09T00:13:02.379Z,17.05
2018-05-09T00:14:02.345Z,17.06
2018-05-09T00:15:02.313Z,17.02
2018-05-09T00:16:02.284Z,17.05
2018-05-09T00:17:02.252Z,17.05
2018-05-09T00:18:02.212Z,17.11
2018-05-09T00:19:02.183Z,17.12
2018-05-09T00:20:02.153Z,17.04
2018-05-09T00:21:02.119Z,16.97
2018-05-09T00:22:02.086Z,17.02
2018-05-09T00:23:02.051Z,17.05
2018-05-09T00:24:02.016Z,16.91
2018-05-09T00:25:01.980Z,16.89
2018-05-09T00:26:01.943Z,16.90
2018-05-09T00:27:01.916Z,16.81
2018-05-09T00:28:01.886Z,16.72
2018-05-09T00:29:01.855Z,16.64
2018-05-09T00:30:01.821Z,16.68
2018-05-09T00:31:01.786Z,16.66
2018-05-09T00:32:01.751Z,16.50
2018-05-09T00:33:01.716Z,16.53
2018-05-09T00:34:01.688Z,16.46
2018-05-09T00:35:01.654Z,16.36
2018-05-09T00:36:01.623Z,16.32
2018-05-09T00:37:01.582Z,16.21
2018-05-09T00:38:01.549Z,16.17
2018-05-09T00:39:01.518Z,15.98
2018-05-09T00:40:01.488Z,15.92
2018-05-09T00:41:01.464Z,15.82
2018-05-09T00:42:01.423Z,15.67
2018-05-09T00:43:01.387Z,15.35
2018-05-09T00:44:01.352Z,15.21
2018-05-09T00:45:01.317Z,15.09
2018-05-09T00:46:01.281Z,14.97
2018-05-09T00:47:01.253Z,14.99
2018-05-09T00:48:01.223Z,14.94
2018-05-09T00:49:01.190Z,14.73
2018-05-09T00:50:01.221Z,14.70
2018-05-09T00:51:01.118Z,14.78
2018-05-09T00:52:01.088Z,14.79
2018-05-09T00:53:01.058Z,14.73
2018-05-09T00:54:01.023Z,14.65
2018-05-09T00:55:00.987Z,14.63
2018-05-09T00:56:00.952Z,14.69
2018-05-09T00:57:00.914Z,14.59
2018-05-09T00:58:00.882Z,14.58
2018-05-09T00:59:00.850Z,14.50
2018-05-09T01:00:00.818Z,14.54
2018-05-09T01:01:00.789Z,14.62
2018-05-09T01:02:00.752Z,14.68
2018-05-09T01:03:00.720Z,14.65
2018-05-09T01:04:00.683Z,14.68
2018-05-09T01:05:00.643Z,14.66
2018-05-09T01:06:00.619Z,14.53
2018-05-09T01:07:00.591Z,14.48
2018-05-09T01:08:00.547Z,14.32
2018-05-09T01:09:00.509Z,14.10
2018-05-09T01:10:00.477Z,13.93
2018-05-09T01:11:00.446Z,13.63
2018-05-09T01:12:00.415Z,13.38
2018-05-09T01:13:00.382Z,13.23
2018-05-09T01:14:00.347Z,13.27
2018-05-09T01:15:00.312Z,13.27
2018-05-09T01:16:00.275Z,13.18
2018-05-09T01:17:00.239Z,13.30
2018-05-09T01:18:00.210Z,13.23
2018-05-09T01:19:00.173Z,13.42
2018-05-09T01:20:00.142Z,13.63
2018-05-09T01:21:00.107Z,13.74
2018-05-09T01:22:00.065Z,13.83
2018-05-09T01:23:00.036Z,13.92
2018-05-09T01:24:00.004Z,14.10
2018-05-09T01:24:59.970Z,14.25
2018-05-09T01:25:59.936Z,14.22
2018-05-09T01:26:59.899Z,14.30
2018-05-09T01:27:59.866Z,14.29
2018-05-09T01:28:59.826Z,14.40
2018-05-09T01:29:59.792Z,14.35
2018-05-09T01:30:59.754Z,14.36
2018-05-09T01:31:59.732Z,14.40
2018-05-09T01:32:59.692Z,14.37
2018-05-09T01:33:59.659Z,14.30
2018-05-09T01:34:59.625Z,14.22
2018-05-09T01:35:59.580Z,14.07
2018-05-09T01:36:59.552Z,14.07
2018-05-09T01:37:59.520Z,14.05
2018-05-09T01:38:59.486Z,14.04
2018-05-09T01:39:59.444Z,13.99
2018-05-09T01:40:59.414Z,14.00
2018-05-09T01:41:59.378Z,14.05
2018-05-09T01:42:59.340Z,14.07
2018-05-09T01:43:59.324Z,14.08
2018-05-09T01:44:59.279Z,14.05
2018-05-09T01:45:59.244Z,14.05
2018-05-09T01:46:59.210Z,14.03
2018-05-09T01:47:59.167Z,14.08
2018-05-09T01:48:59.138Z,14.05
2018-05-09T01:49:59.104Z,14.07
2018-05-09T01:50:59.064Z,14.00
2018-05-09T01:51:59.039Z,14.03
2018-05-09T01:52:59.002Z,13.97
2018-05-09T01:53:58.970Z,13.96
2018-05-09T01:54:59.014Z,13.95
2018-05-09T01:55:58.900Z,14.05
2018-05-09T01:56:58.863Z,13.93
2018-05-09T01:57:58.828Z,13.97
2018-05-09T01:58:58.796Z,13.95
2018-05-09T01:59:58.752Z,13.96
2018-05-09T02:00:58.723Z,13.90
2018-05-09T02:01:58.684Z,13.95
2018-05-09T02:02:58.649Z,13.83
2018-05-09T02:03:58.622Z,13.78
2018-05-09T02:04:58.588Z,13.74
2018-05-09T02:05:58.572Z,13.62
2018-05-09T02:06:58.526Z,13.54
2018-05-09T02:07:58.477Z,13.41
2018-05-09T02:08:58.442Z,13.39
2018-05-09T02:09:58.411Z,13.31
2018-05-09T02:10:58.379Z,13.25
2018-05-09T02:11:58.336Z,13.35
2018-05-09T02:12:58.306Z,13.35
2018-05-09T02:13:58.268Z,13.35
2018-05-09T02:14:58.232Z,13.28
2018-05-09T02:15:58.207Z,13.23
2018-05-09T02:16:58.166Z,13.38
2018-05-09T02:17:58.133Z,13.37
2018-05-09T02:18:58.100Z,13.25
2018-05-09T02:19:58.059Z,13.19
2018-05-09T02:20:58.026Z,13.15
2018-05-09T02:21:57.992Z,13.15
2018-05-09T02:22:57.952Z,13.16
2018-05-09T02:23:57.995Z,13.16
2018-05-09T02:24:57.889Z,13.11
2018-05-09T02:25:57.851Z,13.11
2018-05-09T02:26:57.813Z,13.16
2018-05-09T02:27:57.785Z,13.16
2018-05-09T02:28:57.746Z,13.20
2018-05-09T02:29:57.713Z,13.18
2018-05-09T02:30:57.681Z,13.23
2018-05-09T02:31:57.639Z,13.28
2018-05-09T02:32:57.606Z,13.27
2018-05-09T02:33:57.572Z,13.31
2018-05-09T02:34:57.533Z,13.20
2018-05-09T02:35:57.506Z,13.28
2018-05-09T02:36:57.468Z,13.38
2018-05-09T02:37:57.433Z,13.23
2018-05-09T02:38:57.402Z,13.27
2018-05-09T02:39:57.358Z,13.30
2018-05-09T02:40:57.326Z,13.23
2018-05-09T02:41:57.296Z,13.30
2018-05-09T02:42:57.259Z,13.31
2018-05-09T02:43:57.216Z,13.25
2018-05-09T02:44:57.186Z,13.15
2018-05-09T02:45:57.152Z,13.15
2018-05-09T02:46:57.114Z,13.13
2018-05-09T02:47:57.084Z,13.15
2018-05-09T02:48:57.048Z,13.16
2018-05-09T02:49:57.051Z,13.01
2018-05-09T02:50:56.978Z,13.05
2018-05-09T02:51:56.936Z,13.05
2018-05-09T02:52:56.913Z,13.00
2018-05-09T02:53:56.874Z,12.97
2018-05-09T02:54:56.830Z,13.09
2018-05-09T02:55:56.804Z,13.11
2018-05-09T02:56:56.767Z,13.04
2018-05-09T02:57:56.727Z,13.04
2018-05-09T02:58:56.691Z,13.00
2018-05-09T02:59:56.662Z,13.04
2018-05-09T03:00:56.624Z,12.98
2018-05-09T03:01:56.590Z,12.94
2018-05-09T03:02:56.557Z,12.79
2018-05-09T03:03:56.513Z,12.61
2018-05-09T03:04:56.482Z,12.47
2018-05-09T03:05:56.447Z,12.43
2018-05-09T03:06:56.406Z,12.37
2018-05-09T03:07:56.377Z,12.31
2018-05-09T03:08:56.341Z,12.32
2018-05-09T03:09:56.314Z,12.20
2018-05-09T03:10:56.271Z,12.18
2018-05-09T03:11:56.229Z,12.12
2018-05-09T03:12:56.198Z,12.07
2018-05-09T03:13:56.163Z,12.09
2018-05-09T03:14:56.129Z,12.06
2018-05-09T03:15:56.094Z,12.10
2018-05-09T03:16:56.055Z,12.18
2018-05-09T03:17:56.019Z,12.21
2018-05-09T03:18:55.978Z,12.22
2018-05-09T03:19:55.951Z,12.17
2018-05-09T03:20:55.918Z,12.31
2018-05-09T03:21:55.879Z,12.25
2018-05-09T03:22:55.845Z,12.24
2018-05-09T03:23:55.802Z,12.20
2018-05-09T03:24:55.771Z,12.20
2018-05-09T03:25:55.737Z,12.20
2018-05-09T03:26:55.696Z,12.24
2018-05-09T03:27:55.667Z,12.20
2018-05-09T03:28:55.629Z,12.28
2018-05-09T03:29:55.590Z,12.21
2018-05-09T03:30:55.556Z,12.25
2018-05-09T03:31:55.527Z,12.35
2018-05-09T03:32:55.486Z,12.32
2018-05-09T03:33:55.449Z,12.31
2018-05-09T03:34:55.417Z,12.29
2018-05-09T03:35:55.375Z,12.29
2018-05-09T03:36:55.340Z,12.31
2018-05-09T03:37:55.306Z,12.28
2018-05-09T03:38:55.266Z,12.31
2018-05-09T03:39:55.236Z,12.25
2018-05-09T03:40:55.202Z,12.31
2018-05-09T03:41:55.163Z,12.27
2018-05-09T03:42:55.130Z,12.21
2018-05-09T03:43:55.088Z,12.28
2018-05-09T03:44:55.056Z,12.25
2018-05-09T03:45:55.021Z,12.27
2018-05-09T03:46:54.988Z,12.22
2018-05-09T03:47:54.947Z,12.18
2018-05-09T03:48:54.913Z,12.21
2018-05-09T03:49:54.875Z,12.20
2018-05-09T03:50:54.837Z,12.24
2018-05-09T03:51:54.808Z,12.20
2018-05-09T03:52:54.772Z,12.17
2018-05-09T03:53:54.738Z,12.21
2018-05-09T03:54:54.701Z,12.18
2018-05-09T03:55:54.656Z,12.15
2018-05-09T03:56:54.626Z,12.06
2018-05-09T03:57:54.590Z,12.07
2018-05-09T03:58:54.552Z,12.10
2018-05-09T03:59:54.523Z,12.17
2018-05-09T04:00:54.484Z,12.21
2018-05-09T04:01:54.446Z,12.12
2018-05-09T04:02:54.407Z,12.21
2018-05-09T04:03:54.379Z,12.24
2018-05-09T04:04:54.341Z,12.28
2018-05-09T04:05:54.304Z,12.24
2018-05-09T04:06:54.281Z,12.36
2018-05-09T04:07:54.228Z,12.35
2018-05-09T04:08:54.196Z,12.37
2018-05-09T04:09:54.162Z,12.43
2018-05-09T04:10:54.119Z,12.45
2018-05-09T04:11:54.092Z,12.43
2018-05-09T04:12:54.056Z,12.50
2018-05-09T04:13:54.020Z,12.60
2018-05-09T04:14:54.063Z,12.62
2018-05-09T04:15:53.942Z,12.58
2018-05-09T04:16:53.909Z,12.67
2018-05-09T04:17:53.874Z,12.68
2018-05-09T04:18:53.840Z,12.79
2018-05-09T04:19:53.809Z,12.85
2018-05-09T04:20:53.812Z,12.80
2018-05-09T04:21:53.729Z,12.86
2018-05-09T04:22:53.690Z,12.87
2018-05-09T04:23:53.662Z,12.93
2018-05-09T04:24:53.625Z,12.94
2018-05-09T04:25:53.589Z,13.03
2018-05-09T04:26:53.553Z,13.00
2018-05-09T04:27:53.512Z,13.13
2018-05-09T04:28:53.480Z,13.18
2018-05-09T04:29:53.445Z,13.18
2018-05-09T04:30:53.405Z,13.05
2018-05-09T04:31:53.376Z,13.09
2018-05-09T04:32:53.340Z,13.09
2018-05-09T04:33:53.301Z,13.05
2018-05-09T04:34:53.263Z,13.09
2018-05-09T04:35:53.242Z,13.09
2018-05-09T04:36:53.197Z,13.15
2018-05-09T04:37:53.162Z,13.15
2018-05-09T04:38:53.129Z,13.20
2018-05-09T04:39:53.084Z,13.25
2018-05-09T04:40:53.053Z,13.30
2018-05-09T04:41:53.024Z,13.41
2018-05-09T04:42:52.978Z,13.54
2018-05-09T04:43:52.951Z,13.83
2018-05-09T04:44:52.914Z,13.97
2018-05-09T04:45:52.879Z,14.11
2018-05-09T04:46:52.844Z,14.35
2018-05-09T04:47:52.801Z,14.36
2018-05-09T04:48:52.770Z,14.48
2018-05-09T04:49:52.736Z,14.51
2018-05-09T04:50:52.703Z,14.60
2018-05-09T04:51:52.668Z,14.77
2018-05-09T04:52:52.629Z,14.81
2018-05-09T04:53:52.591Z,14.73
2018-05-09T04:54:52.557Z,14.60
2018-05-09T04:55:52.528Z,14.33
2018-05-09T04:56:52.490Z,14.25
2018-05-09T04:57:52.452Z,14.17
2018-05-09T04:58:52.422Z,14.15
2018-05-09T04:59:52.387Z,14.08
2018-05-09T05:00:52.351Z,14.23
2018-05-09T05:01:52.314Z,14.22
2018-05-09T05:02:52.275Z,14.33
2018-05-09T05:03:52.248Z,14.32
2018-05-09T05:04:52.210Z,14.36
2018-05-09T05:05:52.174Z,14.48
2018-05-09T05:06:52.143Z,14.55
2018-05-09T05:07:52.111Z,14.53
2018-05-09T05:08:52.073Z,14.59
2018-05-09T05:09:52.038Z,14.81
2018-05-09T05:10:52.005Z,14.89
2018-05-09T05:11:51.964Z,14.99
2018-05-09T05:12:51.937Z,15.07
2018-05-09T05:13:51.898Z,15.31
2018-05-09T05:14:51.860Z,15.29
2018-05-09T05:15:51.863Z,15.44
2018-05-09T05:16:51.797Z,15.44
2018-05-09T05:17:51.762Z,15.52
2018-05-09T05:18:51.733Z,15.62
2018-05-09T05:19:51.689Z,15.65
2018-05-09T05:20:51.658Z,15.72
2018-05-09T05:21:51.626Z,15.79
2018-05-09T05:22:51.594Z,15.77
2018-05-09T05:23:51.552Z,15.79
2018-05-09T05:24:51.522Z,15.76
2018-05-09T05:25:51.488Z,15.75
2018-05-09T05:26:51.448Z,15.82
2018-05-09T05:27:51.426Z,15.91
2018-05-09T05:28:51.389Z,15.82
2018-05-09T05:29:51.354Z,15.70
2018-05-09T05:30:51.322Z,15.80
2018-05-09T05:31:51.280Z,15.84
2018-05-09T05:32:51.269Z,15.91
2018-05-09T05:33:51.217Z,15.95
2018-05-09T05:34:51.179Z,16.01
2018-05-09T05:35:51.154Z,16.05
2018-05-09T05:36:51.119Z,16.13
2018-05-09T05:37:51.083Z,16.26
2018-05-09T05:38:51.057Z,16.33
2018-05-09T05:39:51.022Z,16.35
2018-05-09T05:40:50.988Z,16.47
2018-05-09T05:41:50.950Z,16.50
2018-05-09T05:42:50.920Z,16.50
2018-05-09T05:43:50.883Z,16.65
2018-05-09T05:44:50.854Z,16.71
2018-05-09T05:45:50.822Z,16.90
2018-05-09T05:46:50.779Z,17.02
2018-05-09T05:47:50.754Z,17.11
2018-05-09T05:48:50.719Z,17.05
2018-05-09T05:49:50.687Z,17.06
2018-05-09T05:50:50.654Z,17.26
2018-05-09T05:51:50.616Z,17.30
2018-05-09T05:52:50.588Z,17.39
2018-05-09T05:53:50.554Z,17.48
2018-05-09T05:54:50.524Z,17.65
2018-05-09T05:55:50.485Z,17.60
2018-05-09T05:56:50.455Z,17.76
2018-05-09T05:57:50.422Z,17.86
2018-05-09T05:58:50.441Z,17.94
2018-05-09T05:59:50.362Z,18.03
2018-05-09T06:00:50.328Z,18.05
2018-05-09T06:01:50.294Z,18.13
2018-05-09T06:02:50.265Z,18.10
2018-05-09T06:03:50.231Z,18.07
2018-05-09T06:04:50.196Z,18.22
2018-05-09T06:05:50.165Z,18.34
2018-05-09T06:06:50.127Z,18.34
2018-05-09T06:07:50.105Z,18.49
2018-05-09T06:08:50.072Z,18.59
2018-05-09T06:09:50.038Z,18.73
2018-05-09T06:10:50.005Z,18.88
2018-05-09T06:11:49.978Z,18.84
2018-05-09T06:12:49.950Z,19.02
2018-05-09T06:13:49.914Z,19.14
2018-05-09T06:14:49.883Z,19.29
2018-05-09T06:15:49.845Z,19.33
2018-05-09T06:16:49.816Z,19.51
2018-05-09T06:17:49.784Z,19.41
2018-05-09T06:18:49.748Z,19.55
2018-05-09T06:19:49.726Z,19.54
2018-05-09T06:20:49.697Z,19.54
2018-05-09T06:21:49.661Z,19.45
2018-05-09T06:22:49.631Z,19.45
2018-05-09T06:23:49.604Z,19.34
2018-05-09T06:24:49.566Z,19.33
2018-05-09T06:25:49.537Z,19.16
2018-05-09T06:26:49.508Z,19.21
2018-05-09T06:27:49.473Z,19.18
2018-05-09T06:28:49.446Z,19.21
2018-05-09T06:29:49.413Z,19.21
2018-05-09T06:30:49.465Z,19.18
2018-05-09T06:31:49.355Z,19.24
2018-05-09T06:32:49.326Z,19.30
2018-05-09T06:33:49.296Z,19.26
2018-05-09T06:34:49.266Z,19.33
2018-05-09T06:35:49.230Z,19.34
2018-05-09T06:36:49.203Z,19.41
2018-05-09T06:37:49.259Z,19.44
2018-05-09T06:38:49.139Z,19.52
2018-05-09T06:39:49.116Z,19.47
2018-05-09T06:40:49.089Z,19.41
2018-05-09T06:41:49.054Z,19.40
2018-05-09T06:42:49.019Z,19.40
2018-05-09T06:43:49.017Z,19.36
2018-05-09T06:44:48.966Z,19.34
2018-05-09T06:45:48.936Z,19.30
2018-05-09T06:46:48.908Z,19.49
2018-05-09T06:47:48.872Z,19.45
2018-05-09T06:48:48.845Z,19.56
2018-05-09T06:49:48.815Z,19.58
2018-05-09T06:50:48.780Z,19.63
2018-05-09T06:51:48.760Z,19.55
2018-05-09T06:52:48.726Z,19.69
2018-05-09T06:53:48.696Z,19.82
2018-05-09T06:54:48.671Z,19.81
2018-05-09T06:55:48.630Z,19.92
2018-05-09T06:56:48.604Z,19.85
2018-05-09T06:57:48.576Z,19.96
2018-05-09T06:58:48.553Z,19.96
2018-05-09T06:59:48.511Z,19.96
2018-05-09T07:00:48.484Z,19.96
2018-05-09T07:01:48.450Z,19.96
2018-05-09T07:02:48.420Z,19.86
2018-05-09T07:03:48.397Z,19.95
2018-05-09T07:04:48.365Z,20.04
2018-05-09T07:05:48.334Z,20.07
2018-05-09T07:06:48.576Z,20.11
2018-05-09T07:07:48.271Z,20.07
2018-05-09T07:08:48.242Z,20.18
2018-05-09T07:09:48.212Z,20.32
2018-05-09T07:10:48.178Z,20.28
2018-05-09T07:11:48.154Z,20.40
2018-05-09T07:12:48.124Z,20.39
2018-05-09T07:13:48.091Z,20.41
2018-05-09T07:14:48.059Z,20.25
2018-05-09T07:15:48.038Z,20.43
2018-05-09T07:16:48.003Z,20.50
2018-05-09T07:17:47.973Z,20.55
2018-05-09T07:18:47.945Z,20.60
2018-05-09T07:19:47.906Z,20.66
2018-05-09T07:20:47.881Z,20.63
2018-05-09T07:21:47.850Z,20.70
2018-05-09T07:22:47.821Z,20.77
2018-05-09T07:23:47.794Z,20.87
2018-05-09T07:24:47.762Z,21.00
2018-05-09T07:25:47.732Z,21.05
2018-05-09T07:26:47.704Z,21.05
2018-05-09T07:27:47.668Z,21.05
2018-05-09T07:28:47.641Z,21.09
2018-05-09T07:29:47.614Z,21.05
2018-05-09T07:30:47.583Z,21.02
2018-05-09T07:31:47.549Z,21.00
2018-05-09T07:32:47.520Z,21.03
2018-05-09T07:33:47.490Z,20.88
2018-05-09T07:34:47.453Z,20.90
2018-05-09T07:35:47.433Z,20.88
2018-05-09T07:36:47.402Z,20.93
2018-05-09T07:37:47.372Z,21.02
2018-05-09T07:38:47.342Z,20.88
2018-05-09T07:39:47.312Z,20.81
2018-05-09T07:40:47.281Z,20.80
2018-05-09T07:41:47.254Z,20.84
2018-05-09T07:42:47.217Z,20.81
2018-05-09T07:43:47.200Z,20.75
2018-05-09T07:44:47.163Z,20.72
2018-05-09T07:45:47.129Z,20.87
2018-05-09T07:46:47.096Z,20.99
2018-05-09T07:47:47.145Z,20.92
2018-05-09T07:48:47.043Z,20.96
2018-05-09T07:49:47.012Z,21.00
2018-05-09T07:50:46.984Z,21.02
2018-05-09T07:51:46.947Z,21.11
2018-05-09T07:52:46.919Z,21.12
2018-05-09T07:53:46.942Z,21.15
2018-05-09T07:54:46.858Z,21.21
2018-05-09T07:55:46.835Z,21.32
2018-05-09T07:56:46.805Z,21.45
2018-05-09T07:57:46.774Z,21.43
2018-05-09T07:58:46.752Z,21.36
2018-05-09T07:59:46.713Z,21.42
2018-05-09T08:00:46.683Z,21.50
2018-05-09T08:01:46.655Z,21.32
2018-05-09T08:02:46.629Z,21.22
2018-05-09T08:03:46.590Z,21.39
2018-05-09T08:04:46.565Z,21.42
2018-05-09T08:05:46.595Z,21.43
2018-05-09T08:06:46.499Z,21.43
2018-05-09T08:07:46.478Z,21.43
2018-05-09T08:08:46.448Z,21.43
2018-05-09T08:09:46.423Z,21.48
2018-05-09T08:10:46.388Z,21.43
2018-05-09T08:11:46.353Z,21.48
2018-05-09T08:12:46.400Z,21.40
2018-05-09T08:13:46.295Z,21.40
2018-05-09T08:14:46.263Z,21.40
2018-05-09T08:15:46.241Z,21.42
2018-05-09T08:16:46.212Z,21.39
2018-05-09T08:17:46.182Z,21.39
2018-05-09T08:18:46.143Z,21.40
2018-05-09T08:19:46.123Z,21.51
2018-05-09T08:20:46.092Z,21.60
2018-05-09T08:21:46.060Z,21.54
2018-05-09T08:22:46.030Z,21.43
2018-05-09T08:23:46.080Z,21.43
2018-05-09T08:24:45.970Z,21.50
2018-05-09T08:25:45.941Z,21.43
2018-05-09T08:26:45.909Z,21.51
2018-05-09T08:27:45.886Z,21.66
2018-05-09T08:28:45.854Z,21.58
2018-05-09T08:29:45.824Z,21.75
2018-05-09T08:30:45.796Z,21.50
2018-05-09T08:31:45.759Z,21.50
2018-05-09T08:32:45.734Z,21.69
2018-05-09T08:33:45.705Z,21.58
2018-05-09T08:34:45.678Z,21.43
2018-05-09T08:35:45.640Z,21.58
2018-05-09T08:36:45.647Z,21.66
2018-05-09T08:37:45.584Z,21.58
2018-05-09T08:38:45.554Z,21.62
2018-05-09T08:39:45.530Z,21.62
2018-05-09T08:40:45.498Z,21.57
2018-05-09T08:41:45.468Z,21.70
2018-05-09T08:42:45.442Z,21.66
2018-05-09T08:43:45.440Z,21.75
2018-05-09T08:44:45.378Z,21.67
2018-05-09T08:45:45.349Z,21.70
2018-05-09T08:46:45.315Z,21.83
2018-05-09T08:47:45.294Z,21.83
2018-05-09T08:48:45.268Z,22.11
2018-05-09T08:49:45.229Z,22.22
2018-05-09T08:50:45.224Z,22.17
2018-05-09T08:51:45.175Z,22.25
2018-05-09T08:52:45.142Z,22.20
2018-05-09T08:53:45.114Z,22.23
2018-05-09T08:54:45.085Z,22.18
2018-05-09T08:55:45.046Z,22.23
2018-05-09T08:56:45.026Z,22.13
2018-05-09T08:57:44.992Z,22.11
2018-05-09T08:58:44.959Z,22.17
2018-05-09T08:59:44.937Z,22.20
2018-05-09T09:00:44.909Z,22.26
2018-05-09T09:01:44.876Z,22.41
2018-05-09T09:02:44.847Z,22.35
2018-05-09T09:03:44.811Z,22.35
2018-05-09T09:04:44.788Z,22.18
2018-05-09T09:05:44.757Z,22.06
2018-05-09T09:06:44.731Z,22.11
2018-05-09T09:07:44.692Z,22.22
2018-05-09T09:08:44.666Z,22.26
2018-05-09T09:09:44.639Z,22.28
2018-05-09T09:10:44.661Z,22.35
2018-05-09T09:11:44.582Z,22.35
2018-05-09T09:12:44.551Z,22.25
2018-05-09T09:13:44.521Z,22.28
2018-05-09T09:14:44.493Z,22.33
2018-05-09T09:15:44.466Z,22.29
2018-05-09T09:16:44.430Z,22.32
2018-05-09T09:17:44.400Z,22.39
2018-05-09T09:18:44.377Z,22.43
2018-05-09T09:19:44.344Z,22.41
2018-05-09T09:20:44.350Z,22.41
2018-05-09T09:21:44.282Z,22.47
2018-05-09T09:22:44.252Z,22.66
2018-05-09T09:23:44.227Z,22.68
2018-05-09T09:24:44.197Z,22.75
2018-05-09T09:25:44.167Z,22.73
2018-05-09T09:26:44.141Z,22.75
2018-05-09T09:27:44.104Z,22.78
2018-05-09T09:28:44.076Z,22.84
2018-05-09T09:29:44.047Z,22.66
2018-05-09T09:30:44.071Z,22.66
2018-05-09T09:31:43.992Z,22.66
2018-05-09T09:32:43.961Z,22.69
2018-05-09T09:33:43.931Z,22.68
2018-05-09T09:34:43.904Z,22.66
2018-05-09T09:35:43.868Z,22.78
2018-05-09T09:36:43.842Z,22.70
2018-05-09T09:37:43.826Z,22.75
2018-05-09T09:38:43.787Z,22.80
2018-05-09T09:39:43.750Z,22.81
2018-05-09T09:40:43.724Z,22.85
2018-05-09T09:41:43.695Z,22.83
2018-05-09T09:42:43.660Z,22.88
2018-05-09T09:43:43.640Z,23.24
2018-05-09T09:44:43.608Z,23.13
2018-05-09T09:45:43.579Z,23.00
2018-05-09T09:46:43.552Z,23.09
2018-05-09T09:47:43.513Z,23.02
2018-05-09T09:48:43.488Z,22.96
2018-05-09T09:49:43.460Z,23.02
2018-05-09T09:50:43.518Z,23.09
2018-05-09T09:51:43.407Z,23.15
2018-05-09T09:52:43.375Z,23.12
2018-05-09T09:53:43.342Z,23.15
2018-05-09T09:54:43.309Z,23.15
2018-05-09T09:55:43.287Z,23.17
2018-05-09T09:56:43.260Z,23.08
2018-05-09T09:57:43.227Z,22.94
2018-05-09T09:58:43.200Z,22.88
2018-05-09T09:59:43.164Z,23.00
2018-05-09T10:00:43.140Z,23.08
2018-05-09T10:01:43.103Z,23.03
2018-05-09T10:02:43.075Z,23.31
2018-05-09T10:03:43.052Z,23.18
2018-05-09T10:04:43.026Z,23.10
2018-05-09T10:05:43.000Z,23.17
2018-05-09T10:06:42.965Z,23.32
2018-05-09T10:07:42.933Z,23.32
2018-05-09T10:08:42.902Z,23.24
2018-05-09T10:09:42.878Z,23.24
2018-05-09T10:10:42.844Z,23.20
2018-05-09T10:11:42.815Z,23.15
2018-05-09T10:12:42.784Z,23.17
2018-05-09T10:13:42.755Z,23.23
2018-05-09T10:14:42.730Z,23.09
2018-05-09T10:15:42.731Z,23.28
2018-05-09T10:16:42.675Z,23.21
2018-05-09T10:17:42.644Z,23.25
2018-05-09T10:18:42.620Z,23.37
2018-05-09T10:19:42.583Z,23.25
2018-05-09T10:20:42.556Z,23.12
2018-05-09T10:21:42.523Z,23.10
2018-05-09T10:22:42.500Z,23.32
2018-05-09T10:23:42.471Z,23.28
2018-05-09T10:24:42.442Z,23.32
2018-05-09T10:25:42.406Z,23.32
2018-05-09T10:26:42.380Z,23.41
2018-05-09T10:27:42.353Z,23.37
2018-05-09T10:28:42.328Z,23.55
2018-05-09T10:29:42.297Z,23.68
2018-05-09T10:30:42.266Z,23.81
2018-05-09T10:31:42.235Z,23.84
2018-05-09T10:32:42.201Z,23.92
2018-05-09T10:33:42.178Z,23.92
2018-05-09T10:34:42.148Z,23.88
2018-05-09T10:35:42.122Z,23.88
2018-05-09T10:36:42.095Z,24.01
2018-05-09T10:37:42.065Z,23.98
2018-05-09T10:38:42.035Z,23.93
2018-05-09T10:39:42.005Z,23.93
2018-05-09T10:40:41.974Z,24.05
2018-05-09T10:41:42.031Z,24.35
2018-05-09T10:42:41.921Z,24.17
2018-05-09T10:43:41.889Z,23.92
2018-05-09T10:44:41.858Z,23.84
2018-05-09T10:45:41.829Z,23.92
2018-05-09T10:46:41.802Z,23.95
2018-05-09T10:47:41.775Z,24.18
2018-05-09T10:48:41.751Z,24.32
2018-05-09T10:49:41.721Z,24.30
2018-05-09T10:50:41.771Z,24.40
2018-05-09T10:51:41.658Z,24.26
2018-05-09T10:52:41.625Z,24.30
2018-05-09T10:53:41.600Z,24.32
2018-05-09T10:54:41.575Z,24.33
2018-05-09T10:55:41.544Z,24.40
2018-05-09T10:56:41.519Z,24.43
2018-05-09T10:57:41.485Z,24.53
2018-05-09T10:58:41.459Z,24.54
2018-05-09T10:59:41.443Z,24.61
2018-05-09T11:00:41.403Z,24.57
2018-05-09T11:01:41.378Z,24.57
2018-05-09T11:02:41.348Z,24.48
2018-05-09T11:03:41.322Z,24.51
2018-05-09T11:04:41.282Z,24.66
2018-05-09T11:05:41.257Z,24.69
2018-05-09T11:06:41.229Z,24.69
2018-05-09T11:07:41.216Z,24.89
2018-05-09T11:08:41.185Z,25.10
2018-05-09T11:09:41.149Z,25.10
2018-05-09T11:10:41.123Z,25.21
2018-05-09T11:11:41.088Z,25.38
2018-05-09T11:12:41.058Z,25.36
2018-05-09T11:13:41.033Z,25.35
2018-05-09T11:14:41.006Z,25.47
2018-05-09T11:15:40.973Z,25.50
2018-05-09T11:16:40.942Z,25.35
2018-05-09T11:17:40.990Z,25.43
2018-05-09T11:18:40.888Z,25.32
2018-05-09T11:19:40.861Z,25.18
2018-05-09T11:20:40.835Z,25.22
2018-05-09T11:21:40.806Z,25.21
2018-05-09T11:22:40.778Z,25.14
2018-05-09T11:23:40.746Z,25.14
2018-05-09T11:24:40.738Z,25.16
2018-05-09T11:25:40.686Z,25.13
2018-05-09T11:26:40.663Z,25.17
2018-05-09T11:27:40.636Z,25.14
2018-05-09T11:28:40.610Z,25.26
2018-05-09T11:29:40.574Z,25.31
2018-05-09T11:30:40.549Z,25.26
2018-05-09T11:31:40.523Z,25.36
2018-05-09T11:32:40.497Z,25.43
2018-05-09T11:33:40.470Z,25.54
2018-05-09T11:34:40.440Z,25.54
2018-05-09T11:35:40.409Z,25.63
2018-05-09T11:36:40.378Z,25.50
2018-05-09T11:37:40.347Z,25.53
2018-05-09T11:38:40.329Z,25.53
2018-05-09T11:39:40.300Z,25.69
2018-05-09T11:40:40.274Z,25.81
2018-05-09T11:41:40.244Z,25.80
2018-05-09T11:42:40.220Z,25.77
2018-05-09T11:43:40.185Z,25.91
2018-05-09T11:44:40.152Z,25.90
2018-05-09T11:45:40.130Z,25.83
2018-05-09T11:46:40.104Z,25.90
2018-05-09T11:47:40.075Z,25.85
2018-05-09T11:48:40.045Z,25.81
2018-05-09T11:49:40.014Z,25.80
2018-05-09T11:50:39.990Z,25.77
2018-05-09T11:51:39.965Z,25.72
2018-05-09T11:52:39.939Z,25.65
2018-05-09T11:53:39.911Z,25.62
2018-05-09T11:54:39.881Z,25.70
2018-05-09T11:55:39.851Z,25.75
2018-05-09T11:56:39.822Z,25.84
2018-05-09T11:57:39.790Z,25.87
2018-05-09T11:58:39.768Z,25.81
2018-05-09T11:59:39.745Z,25.66
2018-05-09T12:00:39.717Z,25.40
2018-05-09T12:01:39.739Z,25.31
2018-05-09T12:02:39.704Z,25.29
2018-05-09T12:03:39.632Z,25.36
2018-05-09T12:04:39.606Z,25.29
2018-05-09T12:05:39.577Z,25.23
2018-05-09T12:06:39.553Z,25.18
2018-05-09T12:07:39.520Z,25.26
2018-05-09T12:08:39.488Z,25.41
2018-05-09T12:09:39.458Z,25.50
2018-05-09T12:10:39.530Z,25.51
2018-05-09T12:11:39.410Z,25.53
2018-05-09T12:12:39.383Z,25.50
2018-05-09T12:13:39.356Z,25.35
2018-05-09T12:14:39.326Z,25.48
2018-05-09T12:15:39.298Z,25.54
2018-05-09T12:39:55.965Z,26.66
2018-05-09T12:40:55.895Z,26.51
2018-05-09T12:41:55.862Z,26.36
2018-05-09T12:42:55.828Z,26.34
2018-05-09T12:43:55.788Z,26.23
2018-05-09T12:44:55.762Z,26.28
2018-05-09T12:45:55.728Z,26.23
2018-05-09T12:46:55.700Z,26.26
2018-05-09T12:47:55.659Z,26.29
2018-05-09T12:48:55.711Z,26.22
2018-05-09T12:49:55.603Z,26.45
2018-05-09T12:50:55.573Z,26.48
2018-05-09T12:51:55.550Z,26.48
2018-05-09T12:52:55.519Z,26.53
2018-05-09T12:55:27.558Z,26.40
2018-05-09T12:56:27.502Z,26.34
2018-05-09T12:57:27.464Z,26.21
2018-05-09T12:58:27.439Z,26.15
2018-05-09T12:59:27.410Z,26.16
2018-05-09T13:00:27.465Z,26.26
2018-05-09T13:01:27.357Z,26.37
2018-05-09T13:02:27.327Z,26.53
2018-05-09T13:03:27.299Z,26.48
2018-05-09T13:04:27.273Z,26.52
2018-05-09T13:05:27.239Z,26.56
2018-05-09T13:06:27.214Z,26.56
2018-05-09T13:07:27.304Z,26.66
2018-05-09T13:08:27.154Z,26.70
2018-05-09T13:09:27.136Z,26.70
2018-05-09T13:10:27.105Z,26.70
2018-05-09T13:11:27.077Z,26.68
2018-05-09T13:12:27.046Z,26.66
2018-05-09T13:13:27.024Z,26.53
2018-05-09T13:14:26.995Z,26.52
2018-05-09T13:15:26.979Z,26.60
2018-05-09T13:16:26.943Z,26.60